createdAt,value
2022-10-06T00:00:38.367Z,93.76
2022-10-06T00:03:04.810Z,93.62
2022-10-06T00:05:31.297Z,93.81
2022-10-06T00:07:58.309Z,93.43
2022-10-06T00:10:24.750Z,93.08
2022-10-06T00:12:52.585Z,92.51
2022-10-06T00:15:22.083Z,92.26
2022-10-06T00:17:48.735Z,92.66
2022-10-06T00:20:15.653Z,92.75
2022-10-06T00:22:45.771Z,92.93
2022-10-06T00:25:15.384Z,92.82
2022-10-06T00:27:44.200Z,92.78
2022-10-06T00:30:13.284Z,92.41
2022-10-06T00:32:40.231Z,92.47
2022-10-06T00:35:08.145Z,92.55
2022-10-06T00:37:37.205Z,92.63
2022-10-06T00:40:09.784Z,92.59
2022-10-06T00:42:58.089Z,92.62
2022-10-06T00:45:27.940Z,91.79
2022-10-06T00:47:57.533Z,91.67
2022-10-06T00:50:24.062Z,91.62
2022-10-06T00:52:50.520Z,91.69
2022-10-06T00:55:17.069Z,91.45
2022-10-06T00:57:43.751Z,91.22
2022-10-06T01:00:10.792Z,91.00
2022-10-06T01:02:46.581Z,91.02
2022-10-06T01:05:20.491Z,91.29
2022-10-06T01:07:46.987Z,91.11
2022-10-06T01:10:13.478Z,91.40
2022-10-06T01:12:40.254Z,91.65
2022-10-06T01:15:08.022Z,91.66
2022-10-06T01:17:43.411Z,91.48
2022-10-06T01:20:12.834Z,91.48
2022-10-06T01:23:05.023Z,92.12
2022-10-06T01:25:34.286Z,91.89
2022-10-06T01:28:02.904Z,92.20
2022-10-06T01:30:33.943Z,92.65
2022-10-06T01:33:00.728Z,92.76
2022-10-06T01:35:27.426Z,92.01
2022-10-06T01:37:54.706Z,91.92
2022-10-06T01:40:21.454Z,91.93
2022-10-06T01:42:47.878Z,91.73
2022-10-06T01:45:14.288Z,91.57
2022-10-06T01:47:40.715Z,91.96
2022-10-06T01:50:08.295Z,91.92
2022-10-06T01:52:36.200Z,91.46
2022-10-06T01:55:03.658Z,91.36
2022-10-06T01:57:30.159Z,91.40
2022-10-06T01:59:56.575Z,91.06
2022-10-06T02:02:23.111Z,91.17
2022-10-06T02:04:49.587Z,90.87
2022-10-06T02:07:16.127Z,90.52
2022-10-06T02:09:42.622Z,90.73
2022-10-06T02:12:09.028Z,90.36
2022-10-06T02:14:35.441Z,90.35
2022-10-06T02:17:01.823Z,90.01
2022-10-06T02:19:28.293Z,90.13
2022-10-06T02:21:54.774Z,90.53
2022-10-06T02:24:21.249Z,89.79
2022-10-06T02:26:47.690Z,89.97
2022-10-06T02:29:14.198Z,90.01
2022-10-06T02:31:40.633Z,90.48
2022-10-06T02:34:07.169Z,90.01
2022-10-06T02:36:33.568Z,90.03
2022-10-06T02:39:00.014Z,89.76
2022-10-06T02:41:26.562Z,89.39
2022-10-06T02:43:55.161Z,89.33
2022-10-06T02:46:22.286Z,89.62
2022-10-06T02:48:48.940Z,89.29
2022-10-06T02:51:17.635Z,89.63
2022-10-06T02:53:45.931Z,89.78
2022-10-06T02:56:17.752Z,90.33
2022-10-06T02:58:45.377Z,90.56
2022-10-06T03:01:15.511Z,89.51
2022-10-06T03:03:42.523Z,89.45
2022-10-06T03:06:23.456Z,89.75
2022-10-06T03:09:10.047Z,89.43
2022-10-06T03:11:39.203Z,89.21
2022-10-06T03:14:06.890Z,88.97
2022-10-06T03:16:37.139Z,88.70
2022-10-06T03:19:04.084Z,89.21
2022-10-06T03:21:33.238Z,88.86
2022-10-06T03:24:00.239Z,88.64
2022-10-06T03:26:56.148Z,89.52
2022-10-06T03:29:22.609Z,89.34
2022-10-06T03:31:49.381Z,89.61
2022-10-06T03:34:15.882Z,89.45
2022-10-06T03:36:42.450Z,89.44
2022-10-06T03:39:08.965Z,89.84
2022-10-06T03:41:37.530Z,89.40
2022-10-06T03:44:05.075Z,89.80
2022-10-06T03:46:34.109Z,89.66
2022-10-06T03:49:01.646Z,89.75
2022-10-06T03:51:39.990Z,89.51
2022-10-06T03:54:10.506Z,89.40
2022-10-06T03:56:40.010Z,89.00
2022-10-06T03:59:11.895Z,89.12
2022-10-06T04:01:42.560Z,89.14
2022-10-06T04:04:10.090Z,88.83
2022-10-06T04:06:38.667Z,88.57
2022-10-06T04:09:11.318Z,88.72
2022-10-06T04:11:42.064Z,88.84
2022-10-06T04:14:11.142Z,88.30
2022-10-06T04:16:40.228Z,88.73
2022-10-06T04:19:10.392Z,88.47
2022-10-06T04:21:38.222Z,87.92
2022-10-06T04:24:06.050Z,88.49
2022-10-06T04:26:37.521Z,88.25
2022-10-06T04:29:04.525Z,87.79
2022-10-06T04:31:33.488Z,88.18
2022-10-06T04:34:01.293Z,87.81
2022-10-06T04:36:30.957Z,87.83
2022-10-06T04:38:59.396Z,87.46
2022-10-06T04:41:28.562Z,88.05
2022-10-06T04:43:55.610Z,88.48
2022-10-06T04:46:42.268Z,88.86
2022-10-06T04:49:13.309Z,88.29
2022-10-06T04:51:44.416Z,88.37
2022-10-06T04:54:11.058Z,88.69
2022-10-06T04:56:37.601Z,88.44
2022-10-06T04:59:04.045Z,88.44
2022-10-06T05:01:32.934Z,88.78
2022-10-06T05:04:01.162Z,88.29
2022-10-06T05:06:33.294Z,88.57
2022-10-06T05:09:06.538Z,88.34
2022-10-06T05:11:33.562Z,88.37
2022-10-06T05:14:00.259Z,88.57
2022-10-06T05:16:28.985Z,88.84
2022-10-06T05:18:56.010Z,88.46
2022-10-06T05:21:29.129Z,88.87
2022-10-06T05:23:56.327Z,89.25
2022-10-06T05:26:25.760Z,88.92
2022-10-06T05:28:52.398Z,89.40
2022-10-06T05:31:21.775Z,88.92
2022-10-06T05:33:48.390Z,89.32
2022-10-06T05:36:17.590Z,89.07
2022-10-06T05:38:45.134Z,88.78
2022-10-06T05:41:15.874Z,88.60
2022-10-06T05:43:42.805Z,88.85
2022-10-06T05:46:20.797Z,88.82
2022-10-06T05:48:55.587Z,88.68
2022-10-06T05:51:29.370Z,88.70
2022-10-06T05:53:57.262Z,88.61
2022-10-06T05:56:29.111Z,88.92
2022-10-06T05:58:57.506Z,88.49
2022-10-06T06:01:34.835Z,89.05
2022-10-06T06:04:06.770Z,88.98
2022-10-06T06:06:36.287Z,89.04
2022-10-06T06:09:09.161Z,89.25
2022-10-06T06:11:38.084Z,89.57
2022-10-06T06:14:06.695Z,89.42
2022-10-06T06:16:34.011Z,89.27
2022-10-06T06:19:01.259Z,89.16
2022-10-06T06:21:29.005Z,90.01
2022-10-06T06:23:55.690Z,89.91
2022-10-06T06:26:27.749Z,90.16
2022-10-06T06:28:57.027Z,90.53
2022-10-06T06:31:29.778Z,90.96
2022-10-06T06:33:58.506Z,91.02
2022-10-06T06:36:35.524Z,91.28
2022-10-06T06:39:05.576Z,91.34
2022-10-06T06:41:35.915Z,91.38
2022-10-06T06:44:02.361Z,91.71
2022-10-06T06:46:32.202Z,91.70
2022-10-06T06:49:04.347Z,91.65
2022-10-06T06:51:33.188Z,91.55
2022-10-06T06:54:02.301Z,91.65
2022-10-06T06:56:35.084Z,91.47
2022-10-06T06:59:10.916Z,91.14
2022-10-06T07:01:47.207Z,91.20
2022-10-06T07:04:15.460Z,91.17
2022-10-06T07:06:44.650Z,91.29
2022-10-06T07:09:11.115Z,90.75
2022-10-06T07:11:40.884Z,90.65
2022-10-06T07:14:10.184Z,91.16
2022-10-06T07:16:55.247Z,91.19
2022-10-06T07:19:40.504Z,90.72
2022-10-06T07:22:25.482Z,90.55
2022-10-06T07:25:07.892Z,90.67
2022-10-06T07:27:38.366Z,90.65
2022-10-06T07:30:05.760Z,90.50
2022-10-06T07:32:32.739Z,90.27
2022-10-06T07:34:59.323Z,89.37
2022-10-06T07:37:27.080Z,89.34
2022-10-06T07:39:53.518Z,89.69
2022-10-06T07:42:20.392Z,89.06
2022-10-06T07:45:06.048Z,89.26
2022-10-06T07:47:33.427Z,88.37
2022-10-06T07:50:00.245Z,88.28
2022-10-06T07:52:28.846Z,87.78
2022-10-06T07:54:56.439Z,86.97
2022-10-06T07:57:23.192Z,86.62
2022-10-06T07:59:50.581Z,86.35
2022-10-06T08:02:19.152Z,86.64
2022-10-06T08:04:45.601Z,85.81
2022-10-06T08:07:12.600Z,86.11
2022-10-06T08:09:39.038Z,86.85
2022-10-06T08:12:25.587Z,85.39
2022-10-06T08:14:52.206Z,85.23
2022-10-06T08:17:19.051Z,85.21
2022-10-06T08:19:45.476Z,84.63
2022-10-06T08:22:12.561Z,84.26
2022-10-06T08:25:04.364Z,83.82
2022-10-06T08:27:27.761Z,84.33
2022-10-06T08:29:55.288Z,82.58
2022-10-06T08:32:22.797Z,84.10
2022-10-06T08:34:49.779Z,83.41
2022-10-06T08:37:22.634Z,80.59
2022-10-06T08:39:50.434Z,80.74
2022-10-06T08:42:25.296Z,81.54
2022-10-06T08:45:24.116Z,81.85
2022-10-06T08:48:07.226Z,79.23
2022-10-06T08:50:39.985Z,79.98
2022-10-06T08:53:47.070Z,79.34
2022-10-06T08:56:36.465Z,80.35
2022-10-06T08:59:04.752Z,79.46
2022-10-06T09:01:52.220Z,79.68
2022-10-06T09:04:29.526Z,79.77
2022-10-06T09:07:15.378Z,79.25
2022-10-06T09:10:07.154Z,79.53
2022-10-06T09:12:47.464Z,78.17
2022-10-06T09:15:28.780Z,77.50
2022-10-06T09:18:10.595Z,76.61
2022-10-06T09:20:43.873Z,75.75
2022-10-06T09:23:16.391Z,74.59
2022-10-06T09:25:43.286Z,76.28
2022-10-06T09:28:15.768Z,75.46
2022-10-06T09:30:43.362Z,75.71
2022-10-06T09:33:20.746Z,76.16
2022-10-06T09:36:10.644Z,74.66
2022-10-06T09:38:53.822Z,74.58
2022-10-06T09:41:25.376Z,73.66
2022-10-06T09:44:01.488Z,75.90
2022-10-06T09:46:33.955Z,76.70
2022-10-06T09:49:21.203Z,76.27
2022-10-06T09:52:12.143Z,75.97
2022-10-06T09:54:41.773Z,74.16
2022-10-06T09:57:16.045Z,73.04
2022-10-06T09:59:45.182Z,72.93
2022-10-06T10:02:41.142Z,73.00
2022-10-06T10:05:20.019Z,72.53
2022-10-06T10:07:49.298Z,73.35
2022-10-06T10:10:25.234Z,74.60
2022-10-06T10:12:53.662Z,73.28
2022-10-06T10:15:20.038Z,73.09
2022-10-06T10:17:50.800Z,74.85
2022-10-06T10:20:35.545Z,71.42
2022-10-06T10:23:31.810Z,70.73
2022-10-06T10:26:27.085Z,71.83
2022-10-06T10:29:33.447Z,71.31
2022-10-06T10:32:05.977Z,71.30
2022-10-06T10:35:22.966Z,71.39
2022-10-06T10:37:52.285Z,69.90
2022-10-06T10:40:32.077Z,71.91
2022-10-06T10:43:21.558Z,70.61
2022-10-06T10:45:58.065Z,70.31
2022-10-06T10:48:42.147Z,70.30
2022-10-06T10:51:19.860Z,71.94
2022-10-06T10:54:10.879Z,70.84
2022-10-06T10:56:37.314Z,70.09
2022-10-06T10:59:22.038Z,70.38
2022-10-06T11:01:56.232Z,71.28
2022-10-06T11:04:22.788Z,69.47
2022-10-06T11:07:11.086Z,68.80
2022-10-06T11:09:52.232Z,68.05
2022-10-06T11:12:27.915Z,67.66
2022-10-06T11:14:54.326Z,68.92
2022-10-06T11:17:27.309Z,70.57
2022-10-06T11:20:04.013Z,67.36
2022-10-06T11:23:18.568Z,68.34
2022-10-06T11:26:03.781Z,65.67
2022-10-06T11:28:43.173Z,67.48
2022-10-06T11:31:22.603Z,66.52
2022-10-06T11:33:53.090Z,65.72
2022-10-06T11:36:53.181Z,66.73
2022-10-06T11:39:40.632Z,65.38
2022-10-06T11:42:16.909Z,65.71
2022-10-06T11:45:03.720Z,66.51
2022-10-06T11:47:36.385Z,66.29
2022-10-06T11:50:44.476Z,66.21
2022-10-06T11:53:24.980Z,64.94
2022-10-06T11:56:17.251Z,65.38
2022-10-06T11:58:55.794Z,64.83
2022-10-06T12:01:31.281Z,64.80
2022-10-06T12:04:09.933Z,65.42
2022-10-06T12:06:42.503Z,66.99
2022-10-06T12:09:23.972Z,66.13
2022-10-06T12:12:00.445Z,65.46
2022-10-06T12:17:40.610Z,65.98
2022-10-06T12:20:12.795Z,66.39
2022-10-06T12:22:47.359Z,65.26
2022-10-06T12:25:20.542Z,66.33
2022-10-06T12:28:11.186Z,66.74
2022-10-06T12:30:55.667Z,67.13
2022-10-06T12:33:38.857Z,66.85
2022-10-06T12:36:18.178Z,66.70
2022-10-06T12:39:07.177Z,65.89
2022-10-06T12:42:01.379Z,64.55
2022-10-06T12:44:37.670Z,64.67
2022-10-06T12:47:10.820Z,64.62
2022-10-06T12:49:51.298Z,65.29
2022-10-06T12:52:31.386Z,63.24
2022-10-06T12:55:28.532Z,62.02
2022-10-06T12:57:55.719Z,60.36
2022-10-06T13:00:36.547Z,62.44
2022-10-06T13:03:07.051Z,61.96
2022-10-06T13:05:35.735Z,62.98
2022-10-06T13:08:07.569Z,62.56
2022-10-06T13:10:34.352Z,61.70
2022-10-06T13:13:01.423Z,62.68
2022-10-06T13:18:14.537Z,63.13
2022-10-06T13:20:52.909Z,62.98
2022-10-06T13:23:34.120Z,63.15
2022-10-06T13:26:24.313Z,63.39
2022-10-06T13:28:53.877Z,63.34
2022-10-06T13:31:35.015Z,63.96
2022-10-06T13:34:12.141Z,63.65
2022-10-06T13:36:41.039Z,63.01
2022-10-06T13:39:17.526Z,63.12
2022-10-06T13:41:54.866Z,62.72
2022-10-06T13:44:23.937Z,63.01
2022-10-06T13:46:57.849Z,64.02
2022-10-06T13:49:30.540Z,63.54
2022-10-06T13:52:01.036Z,60.92
2022-10-06T13:54:37.836Z,60.67
2022-10-06T13:57:04.404Z,61.45
2022-10-06T13:59:38.394Z,61.35
2022-10-06T14:02:22.794Z,63.21
2022-10-06T14:05:26.808Z,61.71
2022-10-06T14:08:02.714Z,60.85
2022-10-06T14:10:33.455Z,57.22
2022-10-06T14:13:01.506Z,55.47
2022-10-06T14:15:32.692Z,56.06
2022-10-06T14:18:02.383Z,53.26
2022-10-06T14:20:42.172Z,55.36
2022-10-06T14:23:33.295Z,56.87
2022-10-06T14:25:59.948Z,57.84
2022-10-06T14:28:26.607Z,58.01
2022-10-06T14:30:53.729Z,57.85
2022-10-06T14:33:20.232Z,59.34
2022-10-06T14:35:48.636Z,58.58
2022-10-06T14:38:15.385Z,59.87
2022-10-06T14:40:43.194Z,59.94
2022-10-06T14:43:10.164Z,59.74
2022-10-06T14:45:41.214Z,60.97
2022-10-06T14:48:07.662Z,61.03
2022-10-06T14:50:35.046Z,60.35
2022-10-06T14:53:01.974Z,59.88
2022-10-06T14:55:30.607Z,61.55
2022-10-06T14:57:58.099Z,59.68
2022-10-06T15:00:28.236Z,59.30
2022-10-06T15:02:55.942Z,60.22
2022-10-06T15:05:23.512Z,57.99
2022-10-06T15:08:09.303Z,59.13
2022-10-06T15:10:38.092Z,57.90
2022-10-06T15:13:10.639Z,55.61
2022-10-06T15:15:37.980Z,56.77
2022-10-06T15:18:04.645Z,57.40
2022-10-06T15:20:31.261Z,58.47
2022-10-06T15:22:58.212Z,58.12
2022-10-06T15:25:43.619Z,60.10
2022-10-06T15:28:32.003Z,62.15
2022-10-06T15:30:58.933Z,61.14
2022-10-06T15:33:30.155Z,61.22
2022-10-06T15:36:30.788Z,61.92
2022-10-06T15:38:58.328Z,61.84
2022-10-06T15:41:25.871Z,61.35
2022-10-06T15:43:55.987Z,62.37
2022-10-06T15:46:34.504Z,59.98
2022-10-06T15:49:03.711Z,61.98
2022-10-06T15:51:34.865Z,61.03
2022-10-06T15:54:01.361Z,60.72
2022-10-06T15:56:29.386Z,60.27
2022-10-06T15:58:55.798Z,58.73
2022-10-06T16:01:35.670Z,59.26
2022-10-06T16:04:11.877Z,57.88
2022-10-06T16:06:48.867Z,57.81
2022-10-06T16:09:18.956Z,57.18
2022-10-06T16:11:47.134Z,58.20
2022-10-06T16:14:14.844Z,58.97
2022-10-06T16:16:43.796Z,59.92
2022-10-06T16:19:10.915Z,58.32
2022-10-06T16:21:39.097Z,58.20
2022-10-06T16:24:05.739Z,59.72
2022-10-06T16:26:33.129Z,59.86
2022-10-06T16:29:00.252Z,60.04
2022-10-06T16:31:27.195Z,60.79
2022-10-06T16:33:53.932Z,60.32
2022-10-06T16:36:20.709Z,61.53
2022-10-06T16:38:50.911Z,60.83
2022-10-06T16:41:17.597Z,59.62
2022-10-06T16:43:46.119Z,60.32
2022-10-06T16:46:15.179Z,61.02
2022-10-06T16:48:44.105Z,61.41
2022-10-06T16:51:15.067Z,62.13
2022-10-06T16:53:43.947Z,62.96
2022-10-06T16:56:14.106Z,62.48
2022-10-06T16:58:43.145Z,63.15
2022-10-06T17:01:11.338Z,63.35
2022-10-06T17:03:38.465Z,63.47
2022-10-06T17:06:13.919Z,63.95
2022-10-06T17:08:41.677Z,64.81
2022-10-06T17:11:08.061Z,65.30
2022-10-06T17:13:36.777Z,65.77
2022-10-06T17:16:09.784Z,65.53
2022-10-06T17:18:36.583Z,65.97
2022-10-06T17:21:20.184Z,66.13
2022-10-06T17:23:58.141Z,67.21
2022-10-06T17:26:27.547Z,67.98
2022-10-06T17:28:56.641Z,68.07
2022-10-06T17:31:28.345Z,69.18
2022-10-06T17:33:55.741Z,69.94
2022-10-06T17:36:23.676Z,70.85
2022-10-06T17:38:56.694Z,71.66
2022-10-06T17:41:28.101Z,72.42
2022-10-06T17:43:55.484Z,72.20
2022-10-06T17:46:22.905Z,72.24
2022-10-06T17:48:51.511Z,72.40
2022-10-06T17:51:20.760Z,72.83
2022-10-06T17:53:49.608Z,72.74
2022-10-06T17:56:18.982Z,73.07
2022-10-06T17:58:54.502Z,73.28
2022-10-06T18:01:23.299Z,73.67
2022-10-06T18:03:52.747Z,73.95
2022-10-06T18:06:19.410Z,73.58
2022-10-06T18:08:48.525Z,73.14
2022-10-06T18:11:37.981Z,73.00
2022-10-06T18:14:07.391Z,73.36
2022-10-06T18:16:45.708Z,74.24
2022-10-06T18:19:20.191Z,74.38
2022-10-06T18:21:47.871Z,74.84
2022-10-06T18:24:16.450Z,75.14
2022-10-06T18:26:44.058Z,75.24
2022-10-06T18:29:10.958Z,74.24
2022-10-06T18:31:38.853Z,73.43
2022-10-06T18:36:52.873Z,73.91
2022-10-06T18:39:19.446Z,74.36
2022-10-06T18:41:46.327Z,74.83
2022-10-06T18:44:12.810Z,75.13
2022-10-06T18:46:57.566Z,75.00
2022-10-06T18:49:25.266Z,74.80
2022-10-06T18:51:58.284Z,75.02
2022-10-06T18:54:27.342Z,75.22
2022-10-06T18:56:55.000Z,76.15
2022-10-06T18:59:26.320Z,76.79
2022-10-06T19:01:54.570Z,76.69
2022-10-06T19:04:22.929Z,76.49
2022-10-06T19:06:52.297Z,76.50
2022-10-06T19:09:21.312Z,76.57
2022-10-06T19:11:52.281Z,76.27
2022-10-06T19:14:25.413Z,76.67
2022-10-06T19:16:56.275Z,77.60
2022-10-06T19:19:24.877Z,77.82
2022-10-06T19:21:52.834Z,78.23
2022-10-06T19:24:21.960Z,77.92
2022-10-06T19:26:50.755Z,77.48
2022-10-06T19:29:22.378Z,77.29
2022-10-06T19:31:50.221Z,77.67
2022-10-06T19:34:17.988Z,77.94
2022-10-06T19:36:52.906Z,78.44
2022-10-06T19:39:25.340Z,78.89
2022-10-06T19:42:10.377Z,78.52
2022-10-06T19:44:42.579Z,78.22
2022-10-06T19:47:12.712Z,78.20
2022-10-06T19:49:39.186Z,78.16
2022-10-06T19:52:08.179Z,77.58
2022-10-06T19:54:35.937Z,78.03
2022-10-06T19:57:05.488Z,78.34
2022-10-06T19:59:33.142Z,78.86
2022-10-06T20:01:59.695Z,79.21
2022-10-06T20:04:26.255Z,79.77
2022-10-06T20:06:53.309Z,79.22
2022-10-06T20:09:22.564Z,79.70
2022-10-06T20:11:50.924Z,79.43
2022-10-06T20:14:21.232Z,79.71
2022-10-06T20:16:50.567Z,79.89
2022-10-06T20:19:18.478Z,79.29
2022-10-06T20:21:46.019Z,79.45
2022-10-06T20:24:13.829Z,79.06
2022-10-06T20:26:42.630Z,78.87
2022-10-06T20:29:12.093Z,79.20
2022-10-06T20:31:42.320Z,78.99
2022-10-06T20:34:11.126Z,79.81
2022-10-06T20:36:38.554Z,80.51
2022-10-06T20:39:25.384Z,80.72
2022-10-06T20:41:53.259Z,80.78
2022-10-06T20:44:20.009Z,80.79
2022-10-06T20:46:47.267Z,80.86
2022-10-06T20:49:17.476Z,80.58
2022-10-06T20:51:52.150Z,81.08
2022-10-06T20:54:20.790Z,81.50
2022-10-06T20:56:50.206Z,81.63
2022-10-06T20:59:18.077Z,81.74
2022-10-06T21:01:44.733Z,81.71
2022-10-06T21:04:11.641Z,81.71
2022-10-06T21:06:38.390Z,81.38
2022-10-06T21:09:12.600Z,81.59
2022-10-06T21:11:39.116Z,81.97
2022-10-06T21:14:10.303Z,81.77
2022-10-06T21:16:41.862Z,81.40
2022-10-06T21:19:13.494Z,81.63
2022-10-06T21:21:41.096Z,81.51
2022-10-06T21:24:08.387Z,81.37
2022-10-06T21:26:35.444Z,81.57
2022-10-06T21:29:02.215Z,81.48
2022-10-06T21:31:28.918Z,81.80
2022-10-06T21:33:55.493Z,81.82
2022-10-06T21:36:26.786Z,81.99
2022-10-06T21:38:55.399Z,81.19
2022-10-06T21:41:31.597Z,80.99
2022-10-06T21:44:09.771Z,81.54
2022-10-06T21:46:53.883Z,81.43
2022-10-06T21:49:22.723Z,81.49
2022-10-06T21:51:52.494Z,81.49
2022-10-06T21:54:20.221Z,82.16
2022-10-06T21:56:47.117Z,81.68
2022-10-06T21:59:13.560Z,81.47
2022-10-06T22:01:42.528Z,81.38
2022-10-06T22:04:10.017Z,81.66
2022-10-06T22:06:37.587Z,81.86
2022-10-06T22:09:06.452Z,81.81
2022-10-06T22:11:35.466Z,81.87
2022-10-06T22:14:04.592Z,81.95
2022-10-06T22:16:32.891Z,82.01
2022-10-06T22:19:01.517Z,81.33
2022-10-06T22:21:30.352Z,81.47
2022-10-06T22:24:11.498Z,81.55
2022-10-06T22:26:40.483Z,81.41
2022-10-06T22:29:10.093Z,81.39
2022-10-06T22:31:39.258Z,81.56
2022-10-06T22:34:06.182Z,81.45
2022-10-06T22:36:33.621Z,81.51
2022-10-06T22:39:00.869Z,81.76
2022-10-06T22:41:27.512Z,81.36
2022-10-06T22:43:58.246Z,81.30
2022-10-06T22:46:26.051Z,81.51
2022-10-06T22:48:53.032Z,81.57
2022-10-06T22:51:20.505Z,81.51
2022-10-06T22:53:46.952Z,81.58
2022-10-06T22:56:13.399Z,81.56
2022-10-06T22:58:39.949Z,81.83
2022-10-06T23:01:15.280Z,81.55
2022-10-06T23:03:41.833Z,81.85
2022-10-06T23:06:11.714Z,81.47
2022-10-06T23:08:38.685Z,81.48
2022-10-06T23:11:16.487Z,81.98
2022-10-06T23:13:44.396Z,82.06
2022-10-06T23:16:13.168Z,82.06
2022-10-06T23:18:41.205Z,82.03
2022-10-06T23:21:10.460Z,82.01
2022-10-06T23:23:37.434Z,81.94
2022-10-06T23:26:09.788Z,82.08
2022-10-06T23:28:37.298Z,82.53
2022-10-06T23:31:05.795Z,82.84
2022-10-06T23:33:32.884Z,82.69
2022-10-06T23:36:04.704Z,82.75
2022-10-06T23:38:31.152Z,82.59
2022-10-06T23:40:57.956Z,82.57
2022-10-06T23:43:24.399Z,82.53
2022-10-06T23:45:51.220Z,83.14
2022-10-06T23:48:18.009Z,82.88
2022-10-06T23:50:58.399Z,82.72
2022-10-06T23:53:25.677Z,82.45
2022-10-06T23:55:52.165Z,82.98
2022-10-06T23:58:19.073Z,82.59
